createdAt,value
2022-07-31T00:00:15.347Z,28.40
2022-07-31T00:02:42.597Z,28.30
2022-07-31T00:05:12.838Z,28.30
2022-07-31T00:07:40.120Z,28.30
2022-07-31T00:10:07.713Z,28.30
2022-07-31T00:12:35.025Z,28.20
2022-07-31T00:15:05.326Z,28.20
2022-07-31T00:17:33.519Z,28.20
2022-07-31T00:20:02.952Z,28.20
2022-07-31T00:22:30.289Z,28.20
2022-07-31T00:24:57.441Z,28.10
2022-07-31T00:27:24.776Z,28.10
2022-07-31T00:29:51.908Z,28.10
2022-07-31T00:32:19.032Z,28.10
2022-07-31T00:34:46.068Z,28.10
2022-07-31T00:37:13.100Z,28.10
2022-07-31T00:39:40.273Z,28.10
2022-07-31T00:42:24.809Z,28.10
2022-07-31T00:44:52.584Z,28.00
2022-07-31T00:47:23.957Z,28.00
2022-07-31T00:49:52.942Z,28.00
2022-07-31T00:52:20.326Z,28.00
2022-07-31T00:54:47.786Z,28.00
2022-07-31T00:57:15.387Z,28.00
2022-07-31T00:59:43.773Z,27.90
2022-07-31T01:02:11.169Z,27.90
2022-07-31T01:04:41.558Z,27.90
2022-07-31T01:07:09.339Z,27.90
2022-07-31T01:09:36.910Z,27.90
2022-07-31T01:12:21.008Z,27.90
2022-07-31T01:14:57.024Z,27.90
2022-07-31T01:17:26.353Z,27.80
2022-07-31T01:19:54.892Z,27.90
2022-07-31T01:23:01.661Z,27.80
2022-07-31T01:25:58.039Z,27.80
2022-07-31T01:29:00.543Z,27.80
2022-07-31T01:31:52.527Z,27.70
2022-07-31T01:34:23.747Z,27.70
2022-07-31T01:37:00.856Z,27.70
2022-07-31T01:39:33.792Z,27.60
2022-07-31T01:42:05.115Z,27.60
2022-07-31T01:44:38.509Z,27.60
2022-07-31T01:47:06.689Z,27.60
2022-07-31T01:49:35.503Z,27.50
2022-07-31T01:52:07.192Z,27.50
2022-07-31T01:54:36.505Z,27.50
2022-07-31T01:57:05.176Z,27.40
2022-07-31T01:59:44.828Z,27.40
2022-07-31T02:02:22.668Z,27.40
2022-07-31T02:04:52.351Z,27.40
2022-07-31T02:07:20.554Z,27.30
2022-07-31T02:09:52.425Z,27.30
2022-07-31T02:12:33.283Z,27.30
2022-07-31T02:15:07.471Z,27.30
2022-07-31T02:17:37.506Z,27.20
2022-07-31T02:20:34.200Z,27.20
2022-07-31T02:23:01.606Z,27.20
2022-07-31T02:25:29.576Z,27.20
2022-07-31T02:27:59.794Z,27.10
2022-07-31T02:30:38.868Z,27.10
2022-07-31T02:33:27.652Z,27.10
2022-07-31T02:35:56.730Z,27.10
2022-07-31T02:38:26.525Z,27.10
2022-07-31T02:40:59.681Z,27.10
2022-07-31T02:43:31.182Z,27.10
2022-07-31T02:46:01.582Z,27.10
2022-07-31T02:48:29.934Z,27.10
2022-07-31T02:51:01.564Z,27.10
2022-07-31T02:53:29.667Z,27.10
2022-07-31T02:56:04.200Z,27.10
2022-07-31T02:58:33.486Z,27.10
2022-07-31T03:01:03.514Z,27.10
2022-07-31T03:03:32.560Z,27.00
2022-07-31T03:05:59.800Z,27.00
2022-07-31T03:08:27.899Z,27.00
2022-07-31T03:10:58.800Z,27.00
2022-07-31T03:13:29.222Z,27.00
2022-07-31T03:15:58.498Z,27.00
2022-07-31T03:18:27.118Z,27.00
2022-07-31T03:20:55.159Z,27.00
2022-07-31T03:23:26.228Z,26.90
2022-07-31T03:26:00.006Z,26.90
2022-07-31T03:28:28.130Z,26.90
2022-07-31T03:30:56.868Z,26.90
2022-07-31T03:33:27.410Z,26.90
2022-07-31T03:35:54.556Z,26.80
2022-07-31T03:38:39.315Z,26.80
2022-07-31T03:41:11.078Z,26.80
2022-07-31T03:43:44.114Z,26.80
2022-07-31T03:46:18.955Z,26.70
2022-07-31T03:48:46.886Z,26.70
2022-07-31T03:51:15.458Z,26.70
2022-07-31T03:53:44.375Z,26.70
2022-07-31T03:56:25.354Z,26.70
2022-07-31T03:58:52.915Z,26.60
2022-07-31T04:01:22.031Z,26.60
2022-07-31T04:03:59.614Z,26.60
2022-07-31T04:06:36.008Z,26.60
2022-07-31T04:09:09.199Z,26.60
2022-07-31T04:11:46.656Z,26.60
2022-07-31T04:14:13.791Z,26.60
2022-07-31T04:16:41.366Z,26.60
2022-07-31T04:19:08.697Z,26.60
2022-07-31T04:21:39.495Z,26.60
2022-07-31T04:24:07.608Z,26.50
2022-07-31T04:27:07.150Z,26.50
2022-07-31T04:29:41.651Z,26.40
2022-07-31T04:32:08.716Z,26.50
2022-07-31T04:34:42.811Z,26.50
2022-07-31T04:37:12.838Z,26.50
2022-07-31T04:39:40.137Z,26.50
2022-07-31T04:42:11.293Z,26.40
2022-07-31T04:44:38.818Z,26.40
2022-07-31T04:47:07.768Z,26.50
2022-07-31T04:49:40.823Z,26.50
2022-07-31T04:52:08.809Z,26.40
2022-07-31T04:54:38.736Z,26.40
2022-07-31T04:57:08.195Z,26.40
2022-07-31T04:59:59.199Z,26.30
2022-07-31T05:02:22.454Z,26.30
2022-07-31T05:04:56.409Z,26.30
2022-07-31T05:07:28.654Z,26.30
2022-07-31T05:09:58.643Z,26.30
2022-07-31T05:12:26.269Z,26.30
2022-07-31T05:14:53.571Z,26.30
2022-07-31T05:17:21.607Z,26.20
2022-07-31T05:20:01.027Z,26.30
2022-07-31T05:22:47.389Z,26.20
2022-07-31T05:25:32.771Z,26.20
2022-07-31T05:27:59.807Z,26.20
2022-07-31T05:30:30.583Z,26.20
2022-07-31T05:32:58.624Z,26.20
2022-07-31T05:35:25.963Z,26.20
2022-07-31T05:37:53.350Z,26.20
2022-07-31T05:40:30.610Z,26.20
2022-07-31T05:43:35.804Z,26.20
2022-07-31T05:46:17.293Z,26.20
2022-07-31T05:48:47.281Z,26.20
2022-07-31T05:51:14.679Z,26.30
2022-07-31T05:53:45.722Z,26.30
2022-07-31T05:56:48.147Z,26.20
2022-07-31T05:59:19.179Z,26.30
2022-07-31T06:01:46.570Z,26.30
2022-07-31T06:04:13.790Z,26.30
2022-07-31T06:06:45.864Z,26.30
2022-07-31T06:09:13.006Z,26.30
2022-07-31T06:11:43.747Z,26.30
2022-07-31T06:14:10.993Z,26.30
2022-07-31T06:17:05.735Z,26.40
2022-07-31T06:19:35.104Z,26.40
2022-07-31T06:22:02.339Z,26.40
2022-07-31T06:24:32.232Z,26.40
2022-07-31T06:27:02.390Z,26.40
2022-07-31T06:29:41.082Z,26.40
2022-07-31T06:32:09.447Z,26.50
2022-07-31T06:34:37.143Z,26.50
2022-07-31T06:37:04.648Z,26.50
2022-07-31T06:39:55.820Z,26.50
2022-07-31T06:42:46.023Z,26.60
2022-07-31T06:45:18.390Z,26.60
2022-07-31T06:48:29.254Z,26.60
2022-07-31T06:51:29.095Z,26.70
2022-07-31T06:53:52.003Z,26.70
2022-07-31T06:56:19.074Z,26.70
2022-07-31T06:58:46.185Z,26.70
2022-07-31T07:01:13.959Z,26.70
2022-07-31T07:03:41.115Z,26.80
2022-07-31T07:06:08.244Z,26.80
2022-07-31T07:08:35.287Z,26.80
2022-07-31T07:11:03.222Z,26.90
2022-07-31T07:13:45.681Z,26.90
2022-07-31T07:16:16.126Z,26.90
2022-07-31T07:18:43.572Z,26.90
2022-07-31T07:21:11.797Z,26.90
2022-07-31T07:23:42.537Z,26.90
2022-07-31T07:26:24.475Z,27.00
2022-07-31T07:28:51.586Z,27.00
2022-07-31T07:31:18.987Z,27.00
2022-07-31T07:33:47.854Z,27.00
2022-07-31T07:36:23.396Z,27.10
2022-07-31T07:38:56.013Z,27.10
2022-07-31T07:41:27.174Z,27.10
2022-07-31T07:43:54.421Z,27.10
2022-07-31T07:46:25.394Z,27.10
2022-07-31T07:48:56.573Z,27.20
2022-07-31T07:51:58.394Z,27.20
2022-07-31T07:54:38.720Z,27.20
2022-07-31T07:57:18.781Z,27.20
2022-07-31T07:59:54.656Z,27.20
2022-07-31T08:02:41.313Z,27.20
2022-07-31T08:05:09.591Z,27.30
2022-07-31T08:07:42.147Z,27.30
2022-07-31T08:10:28.808Z,27.30
2022-07-31T08:13:03.686Z,27.30
2022-07-31T08:15:48.955Z,27.30
2022-07-31T08:18:41.414Z,27.40
2022-07-31T08:21:08.471Z,27.40
2022-07-31T08:23:35.559Z,27.40
2022-07-31T08:26:08.623Z,27.40
2022-07-31T08:28:36.787Z,27.50
2022-07-31T08:31:04.411Z,27.50
2022-07-31T08:33:34.866Z,27.50
2022-07-31T08:36:02.568Z,27.50
2022-07-31T08:38:29.768Z,27.50
2022-07-31T08:41:19.959Z,27.60
2022-07-31T08:43:59.850Z,27.60
2022-07-31T08:46:32.972Z,27.60
2022-07-31T08:49:03.784Z,27.60
2022-07-31T08:51:51.524Z,27.70
2022-07-31T08:54:21.043Z,27.70
2022-07-31T08:56:52.457Z,27.80
2022-07-31T08:59:20.179Z,27.80
2022-07-31T09:01:48.994Z,27.80
2022-07-31T09:04:16.191Z,27.80
2022-07-31T09:06:43.287Z,27.80
2022-07-31T09:09:10.524Z,27.80
2022-07-31T09:11:49.801Z,27.90
2022-07-31T09:14:52.575Z,27.90
2022-07-31T09:17:31.940Z,27.90
2022-07-31T09:19:59.482Z,27.90
2022-07-31T09:22:32.356Z,28.00
2022-07-31T09:25:12.165Z,28.00
2022-07-31T09:27:42.318Z,28.00
2022-07-31T09:30:10.670Z,28.00
2022-07-31T09:32:54.002Z,28.00
2022-07-31T09:35:48.647Z,28.00
2022-07-31T09:38:16.563Z,28.10
2022-07-31T09:41:56.360Z,28.10
2022-07-31T09:44:39.350Z,28.10
2022-07-31T09:47:07.692Z,28.10
2022-07-31T09:49:35.764Z,28.10
2022-07-31T09:52:03.530Z,28.10
2022-07-31T09:54:31.533Z,28.20
2022-07-31T09:56:58.867Z,28.20
2022-07-31T09:59:31.720Z,28.20
2022-07-31T10:01:59.372Z,28.30
2022-07-31T10:04:26.731Z,28.30
2022-07-31T10:06:56.223Z,28.30
2022-07-31T10:09:25.265Z,28.40
2022-07-31T10:12:19.410Z,28.40
2022-07-31T10:14:49.568Z,28.40
2022-07-31T10:17:33.769Z,28.40
2022-07-31T10:20:21.710Z,28.40
2022-07-31T10:23:09.427Z,28.40
2022-07-31T10:25:53.361Z,28.40
2022-07-31T10:28:22.468Z,28.50
2022-07-31T10:30:50.275Z,28.50
2022-07-31T10:33:42.435Z,28.50
2022-07-31T10:36:34.030Z,28.60
2022-07-31T10:39:21.338Z,28.60
2022-07-31T10:42:14.547Z,28.60
2022-07-31T10:44:50.048Z,28.60
2022-07-31T10:47:26.204Z,28.70
2022-07-31T10:50:24.152Z,28.70
2022-07-31T10:53:20.008Z,28.70
2022-07-31T10:56:10.912Z,28.80
2022-07-31T10:58:59.181Z,28.80
2022-07-31T11:01:53.377Z,28.80
2022-07-31T11:04:49.829Z,28.80
2022-07-31T11:07:37.133Z,28.80
2022-07-31T11:10:19.588Z,28.90
2022-07-31T11:13:11.001Z,28.90
2022-07-31T11:16:05.645Z,28.90
2022-07-31T11:19:02.999Z,28.90
2022-07-31T11:21:43.046Z,29.00
2022-07-31T11:24:18.504Z,29.00
2022-07-31T11:26:58.571Z,29.00
2022-07-31T11:30:02.013Z,29.00
2022-07-31T11:32:25.622Z,29.10
2022-07-31T11:34:59.381Z,29.10
2022-07-31T11:37:29.343Z,29.10
2022-07-31T11:40:12.672Z,29.10
2022-07-31T11:42:59.782Z,29.10
2022-07-31T11:45:49.659Z,29.20
2022-07-31T11:48:19.301Z,29.20
2022-07-31T11:50:49.147Z,29.20
2022-07-31T11:53:17.547Z,29.20
2022-07-31T11:55:49.899Z,29.30
2022-07-31T11:58:18.989Z,29.30
2022-07-31T12:00:51.306Z,29.30
2022-07-31T12:03:29.123Z,29.30
2022-07-31T12:05:56.419Z,29.30
2022-07-31T12:08:24.963Z,29.40
2022-07-31T12:10:54.174Z,29.50
2022-07-31T12:13:22.740Z,29.50
2022-07-31T12:16:10.192Z,29.60
2022-07-31T12:19:00.896Z,29.60
2022-07-31T12:21:39.700Z,29.60
2022-07-31T12:24:14.280Z,29.70
2022-07-31T12:26:49.462Z,29.70
2022-07-31T12:29:16.493Z,29.70
2022-07-31T12:31:54.413Z,29.70
2022-07-31T12:34:35.168Z,29.70
2022-07-31T12:37:05.586Z,29.80
2022-07-31T12:39:59.131Z,29.80
2022-07-31T12:42:33.031Z,29.80
2022-07-31T12:45:18.188Z,29.90
2022-07-31T12:47:51.603Z,29.90
2022-07-31T12:50:24.924Z,29.90
2022-07-31T12:52:53.843Z,29.90
2022-07-31T12:55:22.435Z,30.00
2022-07-31T12:57:51.344Z,30.00
2022-07-31T13:00:23.853Z,30.10
2022-07-31T13:02:59.029Z,30.10
2022-07-31T13:05:26.429Z,30.20
2022-07-31T13:07:56.537Z,30.20
2022-07-31T13:10:25.248Z,30.30
2022-07-31T13:12:59.177Z,30.30
2022-07-31T13:15:29.927Z,30.30
2022-07-31T13:17:58.264Z,30.40
2022-07-31T13:20:25.934Z,30.40
2022-07-31T13:22:53.019Z,30.40
2022-07-31T13:25:21.371Z,30.50
2022-07-31T13:27:48.457Z,30.50
2022-07-31T13:30:16.254Z,30.60
2022-07-31T13:32:43.300Z,30.60
2022-07-31T13:35:24.370Z,30.60
2022-07-31T13:37:56.572Z,30.70
2022-07-31T13:40:44.095Z,30.80
2022-07-31T13:43:11.344Z,30.80
2022-07-31T13:45:38.617Z,30.90
2022-07-31T13:48:09.272Z,30.90
2022-07-31T13:50:37.849Z,30.90
2022-07-31T13:53:05.411Z,30.90
2022-07-31T13:55:32.499Z,30.90
2022-07-31T13:58:01.482Z,31.00
2022-07-31T14:00:31.292Z,31.10
2022-07-31T14:02:58.486Z,31.10
2022-07-31T14:05:26.659Z,31.10
2022-07-31T14:07:54.812Z,31.20
2022-07-31T14:10:22.788Z,31.20
2022-07-31T14:12:50.450Z,31.20
2022-07-31T14:15:20.163Z,31.20
2022-07-31T14:17:47.248Z,31.30
2022-07-31T14:20:14.401Z,31.40
2022-07-31T14:22:42.292Z,31.40
2022-07-31T14:25:10.207Z,31.40
2022-07-31T14:27:38.684Z,31.50
2022-07-31T14:30:09.642Z,31.60
2022-07-31T14:32:36.928Z,31.60
2022-07-31T14:35:08.408Z,31.60
2022-07-31T14:37:36.174Z,31.70
2022-07-31T14:40:04.971Z,31.80
2022-07-31T14:42:32.963Z,31.90
2022-07-31T14:45:00.108Z,32.00
2022-07-31T14:47:27.102Z,32.00
2022-07-31T14:50:06.969Z,32.10
2022-07-31T14:52:35.326Z,32.20
2022-07-31T14:55:02.591Z,32.30
2022-07-31T14:57:31.472Z,32.40
2022-07-31T14:59:58.906Z,32.60
2022-07-31T15:02:26.257Z,32.60
2022-07-31T15:04:53.751Z,32.80
2022-07-31T15:07:43.899Z,32.90
2022-07-31T15:10:10.735Z,33.00
2022-07-31T15:12:38.853Z,33.10
2022-07-31T15:15:07.160Z,33.20
2022-07-31T15:17:34.564Z,33.30
2022-07-31T15:20:01.614Z,33.50
2022-07-31T15:22:28.867Z,33.80
2022-07-31T15:24:55.984Z,34.10
2022-07-31T15:27:25.037Z,34.50
2022-07-31T15:30:03.838Z,34.90
2022-07-31T15:32:38.752Z,35.30
2022-07-31T15:35:08.268Z,35.70
2022-07-31T15:37:39.147Z,36.10
2022-07-31T15:40:27.139Z,36.50
2022-07-31T15:42:56.993Z,36.70
2022-07-31T15:45:24.095Z,36.90
2022-07-31T15:47:51.280Z,37.10
2022-07-31T15:50:20.404Z,37.40
2022-07-31T15:52:48.794Z,37.60
2022-07-31T15:55:16.981Z,37.70
2022-07-31T15:57:44.228Z,37.90
2022-07-31T16:00:13.217Z,38.00
2022-07-31T16:02:42.573Z,38.10
2022-07-31T16:05:20.082Z,38.30
2022-07-31T16:08:28.601Z,38.50
2022-07-31T16:10:36.813Z,38.60
2022-07-31T16:13:04.226Z,38.60
2022-07-31T16:15:32.035Z,38.50
2022-07-31T16:17:59.203Z,38.30
2022-07-31T16:20:27.271Z,38.10
2022-07-31T16:23:01.011Z,37.90
2022-07-31T16:25:30.148Z,37.60
2022-07-31T16:27:59.561Z,37.40
2022-07-31T16:30:27.424Z,37.30
2022-07-31T16:32:54.990Z,37.10
2022-07-31T16:35:22.095Z,37.00
2022-07-31T16:37:51.327Z,36.90
2022-07-31T16:40:28.143Z,37.00
2022-07-31T16:42:56.765Z,37.20
2022-07-31T16:45:23.823Z,37.50
2022-07-31T16:47:52.011Z,37.80
2022-07-31T16:50:19.568Z,38.20
2022-07-31T16:52:48.307Z,38.60
2022-07-31T16:55:17.454Z,39.00
2022-07-31T16:57:44.568Z,39.30
2022-07-31T17:00:12.116Z,39.60
2022-07-31T17:02:39.149Z,39.70
2022-07-31T17:05:09.557Z,39.90
2022-07-31T17:07:36.658Z,40.00
2022-07-31T17:10:04.240Z,40.10
2022-07-31T17:12:31.331Z,40.10
2022-07-31T17:14:58.483Z,40.20
2022-07-31T17:17:25.499Z,40.20
2022-07-31T17:19:55.150Z,40.20
2022-07-31T17:22:25.100Z,40.10
2022-07-31T17:24:52.138Z,39.90
2022-07-31T17:27:21.149Z,39.80
2022-07-31T17:29:48.434Z,39.80
2022-07-31T17:32:17.427Z,39.90
2022-07-31T17:34:45.802Z,40.00
2022-07-31T17:37:13.321Z,40.10
2022-07-31T17:39:40.481Z,40.00
2022-07-31T17:42:09.261Z,39.90
2022-07-31T17:44:37.761Z,39.60
2022-07-31T17:47:08.254Z,39.20
2022-07-31T17:49:38.247Z,38.90
2022-07-31T17:52:05.964Z,38.60
2022-07-31T17:54:33.302Z,38.30
2022-07-31T17:57:00.742Z,37.90
2022-07-31T17:59:28.569Z,37.70
2022-07-31T18:02:03.841Z,37.40
2022-07-31T18:04:33.621Z,37.20
2022-07-31T18:07:04.212Z,37.00
2022-07-31T18:09:32.103Z,36.80
2022-07-31T18:11:59.514Z,36.70
2022-07-31T18:14:26.865Z,36.60
2022-07-31T18:16:54.634Z,36.50
2022-07-31T18:19:22.430Z,36.40
2022-07-31T18:21:50.722Z,36.20
2022-07-31T18:24:18.468Z,36.10
2022-07-31T18:26:45.495Z,36.00
2022-07-31T18:29:12.656Z,35.80
2022-07-31T18:31:39.696Z,35.70
2022-07-31T18:34:07.082Z,35.60
2022-07-31T18:36:35.004Z,35.50
2022-07-31T18:39:03.751Z,35.40
2022-07-31T18:41:31.374Z,35.40
2022-07-31T18:43:58.549Z,35.20
2022-07-31T18:46:26.176Z,35.10
2022-07-31T18:48:56.918Z,35.00
2022-07-31T18:51:28.893Z,34.90
2022-07-31T18:53:56.805Z,34.80
2022-07-31T18:56:25.265Z,34.80
2022-07-31T18:58:53.844Z,34.60
2022-07-31T19:01:24.080Z,34.60
2022-07-31T19:03:51.774Z,34.50
2022-07-31T19:06:19.147Z,34.40
2022-07-31T19:08:49.297Z,34.30
2022-07-31T19:11:16.537Z,34.30
2022-07-31T19:13:43.590Z,34.20
2022-07-31T19:16:11.271Z,34.20
2022-07-31T19:18:41.088Z,34.10
2022-07-31T19:21:23.206Z,34.10
2022-07-31T19:23:57.651Z,34.00
2022-07-31T19:26:24.866Z,34.00
2022-07-31T19:28:52.005Z,33.90
2022-07-31T19:31:19.332Z,33.90
2022-07-31T19:33:46.510Z,33.80
2022-07-31T19:36:15.360Z,33.70
2022-07-31T19:38:44.417Z,33.70
2022-07-31T19:41:12.403Z,33.70
2022-07-31T19:43:39.521Z,33.60
2022-07-31T19:46:11.305Z,33.50
2022-07-31T19:48:44.760Z,33.50
2022-07-31T19:51:13.611Z,33.50
2022-07-31T19:53:44.685Z,33.40
2022-07-31T19:56:16.861Z,33.30
2022-07-31T19:58:47.145Z,33.30
2022-07-31T20:01:14.431Z,33.30
2022-07-31T20:03:41.880Z,33.20
2022-07-31T20:06:09.017Z,33.20
2022-07-31T20:08:36.475Z,33.10
2022-07-31T20:11:05.367Z,33.10
2022-07-31T20:13:33.738Z,33.00
2022-07-31T20:16:01.725Z,33.00
2022-07-31T20:18:29.582Z,32.90
2022-07-31T20:21:09.337Z,32.80
2022-07-31T20:23:38.764Z,32.80
2022-07-31T20:26:11.961Z,32.80
2022-07-31T20:28:40.379Z,32.80
2022-07-31T20:31:15.907Z,32.70
2022-07-31T20:33:57.151Z,32.70
2022-07-31T20:36:26.507Z,32.60
2022-07-31T20:38:53.693Z,32.60
2022-07-31T20:41:21.103Z,32.60
2022-07-31T20:43:48.502Z,32.60
2022-07-31T20:46:16.762Z,32.50
2022-07-31T20:48:45.242Z,32.40
2022-07-31T20:51:20.157Z,32.40
2022-07-31T20:53:48.055Z,32.40
2022-07-31T20:56:15.699Z,32.40
2022-07-31T20:58:43.347Z,32.40
2022-07-31T21:01:11.970Z,32.30
2022-07-31T21:03:39.068Z,32.20
2022-07-31T21:06:06.871Z,32.20
2022-07-31T21:08:34.057Z,32.20
2022-07-31T21:11:04.183Z,32.20
2022-07-31T21:13:31.707Z,32.10
2022-07-31T21:15:59.569Z,32.10
2022-07-31T21:18:26.588Z,32.00
2022-07-31T21:20:53.951Z,32.00
2022-07-31T21:23:22.690Z,32.00
2022-07-31T21:25:51.394Z,31.90
2022-07-31T21:28:18.869Z,31.80
2022-07-31T21:30:46.092Z,31.80
2022-07-31T21:33:13.337Z,31.80
2022-07-31T21:35:40.813Z,31.80
2022-07-31T21:38:12.122Z,31.70
2022-07-31T21:40:40.403Z,31.70
2022-07-31T21:43:08.474Z,31.60
2022-07-31T21:45:50.523Z,31.60
2022-07-31T21:48:25.285Z,31.60
2022-07-31T21:50:53.849Z,31.60
2022-07-31T21:53:21.880Z,31.50
2022-07-31T21:55:49.426Z,31.50
2022-07-31T21:58:16.515Z,31.50
2022-07-31T22:00:44.384Z,31.50
2022-07-31T22:03:11.649Z,31.40
2022-07-31T22:05:57.364Z,31.40
2022-07-31T22:08:24.377Z,31.30
2022-07-31T22:10:52.265Z,31.30
2022-07-31T22:13:20.356Z,31.30
2022-07-31T22:15:54.240Z,31.20
2022-07-31T22:18:29.484Z,31.20
2022-07-31T22:20:57.597Z,31.20
2022-07-31T22:23:25.761Z,31.10
2022-07-31T22:25:53.044Z,31.10
2022-07-31T22:28:21.228Z,31.10
2022-07-31T22:30:49.062Z,31.10
2022-07-31T22:33:16.504Z,31.10
2022-07-31T22:35:43.734Z,31.10
2022-07-31T22:38:15.209Z,31.00
2022-07-31T22:40:44.039Z,31.00
2022-07-31T22:44:09.390Z,31.00
2022-07-31T22:46:00.400Z,31.00
2022-07-31T22:48:28.045Z,31.00
2022-07-31T22:50:55.931Z,30.90
2022-07-31T22:53:25.986Z,30.90
2022-07-31T22:55:54.223Z,30.80
2022-07-31T22:58:22.159Z,30.80
2022-07-31T23:00:50.562Z,30.70
2022-07-31T23:03:17.614Z,30.70
2022-07-31T23:06:27.985Z,30.60
2022-07-31T23:08:31.921Z,30.60
2022-07-31T23:10:58.939Z,30.50
2022-07-31T23:13:26.004Z,30.50
2022-07-31T23:15:53.020Z,30.50
2022-07-31T23:18:20.195Z,30.50
2022-07-31T23:20:47.203Z,30.40
2022-07-31T23:23:14.260Z,30.40
2022-07-31T23:25:41.254Z,30.40
2022-07-31T23:28:08.328Z,30.40
2022-07-31T23:30:35.350Z,30.40
2022-07-31T23:33:02.336Z,30.30
2022-07-31T23:35:29.351Z,30.30
2022-07-31T23:37:56.379Z,30.30
2022-07-31T23:40:23.770Z,30.20
2022-07-31T23:42:50.826Z,30.20
2022-07-31T23:45:17.915Z,30.20
2022-07-31T23:47:46.872Z,30.20
2022-07-31T23:50:15.428Z,30.20
2022-07-31T23:52:43.508Z,30.10
2022-07-31T23:55:10.891Z,30.10
2022-07-31T23:57:38.292Z,30.10
